sensor_id;sensor_type;location;lat;lon;timestamp;pressure;altitude;pressure_sealevel;temperature;humidity
23733;BME280;12047;53.450;-2.286;2023-04-19T00:02:08;102749.34;;;12.57;100.00
23733;BME280;12047;53.450;-2.286;2023-04-19T00:07:09;102755.16;;;12.50;100.00
23733;BME280;12047;53.450;-2.286;2023-04-19T00:12:10;102757.97;;;12.61;100.00
23733;BME280;12047;53.450;-2.286;2023-04-19T00:17:10;102751.47;;;12.65;100.00
23733;BME280;12047;53.450;-2.286;2023-04-19T00:22:11;102749.88;;;12.63;100.00
23733;BME280;12047;53.450;-2.286;2023-04-19T00:27:13;102751.19;;;12.43;100.00
23733;BME280;12047;53.450;-2.286;2023-04-19T00:32:14;102735.59;;;12.24;100.00
23733;BME280;12047;53.450;-2.286;2023-04-19T00:37:15;102724.69;;;12.41;100.00
23733;BME280;12047;53.450;-2.286;2023-04-19T00:42:16;102720.97;;;12.44;100.00
23733;BME280;12047;53.450;-2.286;2023-04-19T00:47:18;102712.97;;;12.31;100.00
23733;BME280;12047;53.450;-2.286;2023-04-19T00:52:20;102706.84;;;12.16;100.00
23733;BME280;12047;53.450;-2.286;2023-04-19T00:57:21;102703.28;;;12.03;100.00
23733;BME280;12047;53.450;-2.286;2023-04-19T01:02:22;102677.38;;;12.07;100.00
23733;BME280;12047;53.450;-2.286;2023-04-19T01:07:22;102675.28;;;12.12;100.00
23733;BME280;12047;53.450;-2.286;2023-04-19T01:12:23;102666.88;;;12.18;100.00
23733;BME280;12047;53.450;-2.286;2023-04-19T01:17:25;102669.22;;;12.10;100.00
23733;BME280;12047;53.450;-2.286;2023-04-19T01:22:26;102666.47;;;12.24;100.00
23733;BME280;12047;53.450;-2.286;2023-04-19T01:27:27;102665.63;;;12.23;100.00
23733;BME280;12047;53.450;-2.286;2023-04-19T01:32:27;102666.84;;;12.05;100.00
23733;BME280;12047;53.450;-2.286;2023-04-19T01:37:28;102662.59;;;12.15;100.00
23733;BME280;12047;53.450;-2.286;2023-04-19T01:42:28;102656.41;;;12.02;100.00
23733;BME280;12047;53.450;-2.286;2023-04-19T01:47:29;102653.28;;;12.22;100.00
23733;BME280;12047;53.450;-2.286;2023-04-19T01:52:31;102651.34;;;12.64;100.00
23733;BME280;12047;53.450;-2.286;2023-04-19T01:57:32;102650.75;;;12.86;100.00
23733;BME280;12047;53.450;-2.286;2023-04-19T02:02:36;102665.25;;;13.20;100.00
23733;BME280;12047;53.450;-2.286;2023-04-19T02:07:38;102659.56;;;13.12;100.00
23733;BME280;12047;53.450;-2.286;2023-04-19T02:12:40;102660.63;;;13.47;100.00
23733;BME280;12047;53.450;-2.286;2023-04-19T02:17:43;102665.78;;;13.25;100.00
23733;BME280;12047;53.450;-2.286;2023-04-19T02:22:51;102656.69;;;13.53;100.00
23733;BME280;12047;53.450;-2.286;2023-04-19T02:27:52;102657.38;;;14.28;100.00
23733;BME280;12047;53.450;-2.286;2023-04-19T02:32:53;102653.06;;;14.73;100.00
23733;BME280;12047;53.450;-2.286;2023-04-19T02:37:55;102654.59;;;14.64;100.00
23733;BME280;12047;53.450;-2.286;2023-04-19T02:42:56;102649.59;;;13.28;100.00
23733;BME280;12047;53.450;-2.286;2023-04-19T02:47:57;102647.66;;;13.05;100.00
23733;BME280;12047;53.450;-2.286;2023-04-19T02:53:03;102640.00;;;12.75;100.00
23733;BME280;12047;53.450;-2.286;2023-04-19T02:58:03;102647.28;;;12.46;100.00
23733;BME280;12047;53.450;-2.286;2023-04-19T03:03:07;102649.66;;;12.63;100.00
23733;BME280;12047;53.450;-2.286;2023-04-19T03:08:09;102646.03;;;12.64;100.00
23733;BME280;12047;53.450;-2.286;2023-04-19T03:13:23;102643.38;;;12.51;100.00
23733;BME280;12047;53.450;-2.286;2023-04-19T03:18:24;102645.00;;;12.79;100.00
23733;BME280;12047;53.450;-2.286;2023-04-19T03:23:29;102644.25;;;12.77;100.00
23733;BME280;12047;53.450;-2.286;2023-04-19T03:28:31;102646.28;;;12.74;100.00
23733;BME280;12047;53.450;-2.286;2023-04-19T03:33:32;102638.72;;;13.06;100.00
23733;BME280;12047;53.450;-2.286;2023-04-19T03:38:32;102638.41;;;13.23;100.00
23733;BME280;12047;53.450;-2.286;2023-04-19T03:43:33;102637.03;;;13.30;100.00
23733;BME280;12047;53.450;-2.286;2023-04-19T03:48:34;102635.09;;;12.94;100.00
23733;BME280;12047;53.450;-2.286;2023-04-19T03:53:35;102638.91;;;12.65;100.00
23733;BME280;12047;53.450;-2.286;2023-04-19T04:01:21;102635.50;;;13.39;100.00
23733;BME280;12047;53.450;-2.286;2023-04-19T04:06:29;102630.44;;;13.36;100.00
23733;BME280;12047;53.450;-2.286;2023-04-19T04:11:36;102626.50;;;13.28;100.00
23733;BME280;12047;53.450;-2.286;2023-04-19T04:16:40;102620.53;;;13.00;100.00
23733;BME280;12047;53.450;-2.286;2023-04-19T04:21:45;102620.84;;;13.33;100.00
23733;BME280;12047;53.450;-2.286;2023-04-19T04:26:51;102627.22;;;13.31;100.00
23733;BME280;12047;53.450;-2.286;2023-04-19T04:31:55;102622.22;;;13.62;100.00
23733;BME280;12047;53.450;-2.286;2023-04-19T04:37:17;102626.56;;;12.89;100.00
23733;BME280;12047;53.450;-2.286;2023-04-19T04:42:41;102630.31;;;12.74;100.00
23733;BME280;12047;53.450;-2.286;2023-04-19T04:47:53;102627.34;;;12.78;100.00
23733;BME280;12047;53.450;-2.286;2023-04-19T04:53:15;102628.06;;;13.80;100.00
23733;BME280;12047;53.450;-2.286;2023-04-19T04:58:41;102617.34;;;13.20;100.00
23733;BME280;12047;53.450;-2.286;2023-04-19T05:03:50;102619.56;;;13.26;100.00
23733;BME280;12047;53.450;-2.286;2023-04-19T05:09:00;102617.19;;;13.47;100.00
23733;BME280;12047;53.450;-2.286;2023-04-19T05:14:01;102620.38;;;13.39;100.00
23733;BME280;12047;53.450;-2.286;2023-04-19T05:19:02;102621.81;;;13.32;100.00
23733;BME280;12047;53.450;-2.286;2023-04-19T05:24:03;102627.34;;;13.66;100.00
23733;BME280;12047;53.450;-2.286;2023-04-19T05:29:06;102634.16;;;13.70;100.00
23733;BME280;12047;53.450;-2.286;2023-04-19T05:34:07;102635.28;;;13.54;100.00
23733;BME280;12047;53.450;-2.286;2023-04-19T05:39:08;102633.59;;;13.41;100.00
23733;BME280;12047;53.450;-2.286;2023-04-19T05:44:09;102631.66;;;13.55;100.00
23733;BME280;12047;53.450;-2.286;2023-04-19T05:49:10;102639.69;;;13.79;100.00
23733;BME280;12047;53.450;-2.286;2023-04-19T05:54:10;102648.41;;;14.29;100.00
23733;BME280;12047;53.450;-2.286;2023-04-19T05:59:13;102646.50;;;14.07;100.00
23733;BME280;12047;53.450;-2.286;2023-04-19T06:04:14;102656.53;;;13.67;100.00
23733;BME280;12047;53.450;-2.286;2023-04-19T06:09:14;102658.88;;;13.72;100.00
23733;BME280;12047;53.450;-2.286;2023-04-19T06:14:18;102658.34;;;14.03;100.00
23733;BME280;12047;53.450;-2.286;2023-04-19T06:19:19;102666.69;;;13.99;100.00
23733;BME280;12047;53.450;-2.286;2023-04-19T06:24:20;102663.34;;;13.84;100.00
23733;BME280;12047;53.450;-2.286;2023-04-19T06:29:20;102666.81;;;13.60;100.00
23733;BME280;12047;53.450;-2.286;2023-04-19T06:34:25;102660.72;;;14.43;100.00
23733;BME280;12047;53.450;-2.286;2023-04-19T06:39:25;102658.16;;;14.17;100.00
23733;BME280;12047;53.450;-2.286;2023-04-19T06:44:27;102664.09;;;13.24;100.00
23733;BME280;12047;53.450;-2.286;2023-04-19T06:49:27;102651.34;;;14.13;100.00
23733;BME280;12047;53.450;-2.286;2023-04-19T06:54:28;102653.22;;;14.83;100.00
23733;BME280;12047;53.450;-2.286;2023-04-19T06:59:28;102662.81;;;13.79;100.00
23733;BME280;12047;53.450;-2.286;2023-04-19T07:04:31;102660.19;;;13.90;100.00
23733;BME280;12047;53.450;-2.286;2023-04-19T07:09:32;102653.28;;;14.35;100.00
23733;BME280;12047;53.450;-2.286;2023-04-19T07:14:33;102652.59;;;13.36;100.00
23733;BME280;12047;53.450;-2.286;2023-04-19T07:19:33;102656.84;;;14.23;100.00
23733;BME280;12047;53.450;-2.286;2023-04-19T07:24:34;102658.13;;;14.06;100.00
23733;BME280;12047;53.450;-2.286;2023-04-19T07:29:36;102650.59;;;14.11;100.00
23733;BME280;12047;53.450;-2.286;2023-04-19T07:34:37;102654.81;;;13.79;100.00
23733;BME280;12047;53.450;-2.286;2023-04-19T07:39:38;102651.75;;;14.44;100.00
23733;BME280;12047;53.450;-2.286;2023-04-19T07:44:38;102642.94;;;15.34;100.00
23733;BME280;12047;53.450;-2.286;2023-04-19T07:49:39;102635.88;;;15.67;100.00
23733;BME280;12047;53.450;-2.286;2023-04-19T07:54:39;102651.22;;;16.08;100.00
23733;BME280;12047;53.450;-2.286;2023-04-19T07:59:40;102642.03;;;15.78;100.00
23733;BME280;12047;53.450;-2.286;2023-04-19T08:04:41;102653.25;;;16.68;100.00
23733;BME280;12047;53.450;-2.286;2023-04-19T08:09:41;102650.78;;;16.12;100.00
23733;BME280;12047;53.450;-2.286;2023-04-19T08:14:42;102653.44;;;16.23;100.00
23733;BME280;12047;53.450;-2.286;2023-04-19T08:19:46;102648.69;;;16.80;100.00
23733;BME280;12047;53.450;-2.286;2023-04-19T08:25:12;102653.72;;;16.41;100.00
23733;BME280;12047;53.450;-2.286;2023-04-19T08:30:24;102651.53;;;16.67;100.00
23733;BME280;12047;53.450;-2.286;2023-04-19T08:41:32;102657.38;;;16.61;100.00
23733;BME280;12047;53.450;-2.286;2023-04-19T08:46:36;102661.97;;;16.17;100.00
23733;BME280;12047;53.450;-2.286;2023-04-19T08:51:37;102657.50;;;16.59;100.00
23733;BME280;12047;53.450;-2.286;2023-04-19T08:56:41;102684.56;;;15.37;100.00
23733;BME280;12047;53.450;-2.286;2023-04-19T09:01:42;102664.03;;;15.59;100.00
23733;BME280;12047;53.450;-2.286;2023-04-19T09:06:42;102665.63;;;15.73;100.00
23733;BME280;12047;53.450;-2.286;2023-04-19T09:11:46;102645.81;;;17.32;100.00
23733;BME280;12047;53.450;-2.286;2023-04-19T09:16:49;102659.09;;;16.62;100.00
23733;BME280;12047;53.450;-2.286;2023-04-19T09:21:51;102642.63;;;16.78;100.00
23733;BME280;12047;53.450;-2.286;2023-04-19T09:26:53;102657.56;;;16.80;100.00
23733;BME280;12047;53.450;-2.286;2023-04-19T09:32:00;102656.59;;;16.28;100.00
23733;BME280;12047;53.450;-2.286;2023-04-19T09:37:11;102656.59;;;17.42;100.00
23733;BME280;12047;53.450;-2.286;2023-04-19T09:42:12;102637.63;;;17.24;100.00
23733;BME280;12047;53.450;-2.286;2023-04-19T09:52:23;102635.44;;;19.13;100.00
23733;BME280;12047;53.450;-2.286;2023-04-19T10:03:15;102628.59;;;16.95;100.00
23733;BME280;12047;53.450;-2.286;2023-04-19T10:15:00;102619.88;;;17.23;100.00
23733;BME280;12047;53.450;-2.286;2023-04-19T10:20:38;102619.66;;;18.05;100.00
23733;BME280;12047;53.450;-2.286;2023-04-19T10:25:55;102625.25;;;17.83;100.00
23733;BME280;12047;53.450;-2.286;2023-04-19T10:31:05;102618.00;;;17.64;100.00
23733;BME280;12047;53.450;-2.286;2023-04-19T10:36:08;102612.72;;;18.22;100.00
23733;BME280;12047;53.450;-2.286;2023-04-19T10:41:09;102621.31;;;17.37;100.00
23733;BME280;12047;53.450;-2.286;2023-04-19T10:51:49;102601.53;;;17.68;100.00
23733;BME280;12047;53.450;-2.286;2023-04-19T10:57:22;102594.13;;;17.51;100.00
23733;BME280;12047;53.450;-2.286;2023-04-19T11:02:30;102581.09;;;17.96;100.00
23733;BME280;12047;53.450;-2.286;2023-04-19T11:07:53;102579.09;;;17.20;100.00
23733;BME280;12047;53.450;-2.286;2023-04-19T11:13:00;102592.06;;;18.32;100.00
23733;BME280;12047;53.450;-2.286;2023-04-19T11:18:02;102584.34;;;18.19;100.00
23733;BME280;12047;53.450;-2.286;2023-04-19T11:23:15;102571.34;;;18.81;100.00
23733;BME280;12047;53.450;-2.286;2023-04-19T11:28:18;102578.63;;;18.61;100.00
23733;BME280;12047;53.450;-2.286;2023-04-19T11:33:40;102573.88;;;18.26;100.00
23733;BME280;12047;53.450;-2.286;2023-04-19T11:38:47;102572.13;;;18.63;100.00
23733;BME280;12047;53.450;-2.286;2023-04-19T11:43:48;102562.97;;;18.37;100.00
23733;BME280;12047;53.450;-2.286;2023-04-19T11:49:30;102560.13;;;19.50;100.00
23733;BME280;12047;53.450;-2.286;2023-04-19T11:54:40;102555.34;;;18.98;100.00
23733;BME280;12047;53.450;-2.286;2023-04-19T12:10:15;102550.84;;;18.89;99.45
23733;BME280;12047;53.450;-2.286;2023-04-19T12:27:02;102542.00;;;18.79;97.55
23733;BME280;12047;53.450;-2.286;2023-04-19T12:32:08;102541.91;;;19.26;96.30
23733;BME280;12047;53.450;-2.286;2023-04-19T12:37:09;102537.28;;;19.36;95.71
23733;BME280;12047;53.450;-2.286;2023-04-19T12:42:34;102537.91;;;19.30;93.27
23733;BME280;12047;53.450;-2.286;2023-04-19T12:59:27;102524.28;;;19.59;90.42
23733;BME280;12047;53.450;-2.286;2023-04-19T13:10:27;102518.56;;;20.15;86.01
23733;BME280;12047;53.450;-2.286;2023-04-19T13:15:31;102512.28;;;19.89;86.33
23733;BME280;12047;53.450;-2.286;2023-04-19T13:20:46;102506.84;;;20.24;85.53
23733;BME280;12047;53.450;-2.286;2023-04-19T13:25:53;102505.91;;;19.90;84.04
23733;BME280;12047;53.450;-2.286;2023-04-19T13:31:15;102518.00;;;19.68;84.04
23733;BME280;12047;53.450;-2.286;2023-04-19T13:48:23;102488.16;;;18.98;79.16
23733;BME280;12047;53.450;-2.286;2023-04-19T13:53:40;102479.97;;;20.07;76.41
23733;BME280;12047;53.450;-2.286;2023-04-19T13:58:42;102481.72;;;19.09;75.14
23733;BME280;12047;53.450;-2.286;2023-04-19T14:15:37;102468.13;;;19.74;70.17
23733;BME280;12047;53.450;-2.286;2023-04-19T14:26:54;102450.13;;;20.44;61.69
23733;BME280;12047;53.450;-2.286;2023-04-19T14:32:13;102454.59;;;20.09;57.05
23733;BME280;12047;53.450;-2.286;2023-04-19T14:37:21;102460.88;;;19.92;56.19
23733;BME280;12047;53.450;-2.286;2023-04-19T14:42:27;102442.28;;;21.00;56.57
23733;BME280;12047;53.450;-2.286;2023-04-19T14:47:46;102448.91;;;20.38;58.40
23733;BME280;12047;53.450;-2.286;2023-04-19T14:52:54;102426.09;;;19.98;57.05
23733;BME280;12047;53.450;-2.286;2023-04-19T14:57:57;102450.78;;;19.94;55.02
23733;BME280;12047;53.450;-2.286;2023-04-19T15:03:03;102433.91;;;20.10;52.24
23733;BME280;12047;53.450;-2.286;2023-04-19T15:08:35;102446.13;;;20.30;50.83
23733;BME280;12047;53.450;-2.286;2023-04-19T15:14:11;102443.59;;;19.77;47.39
23733;BME280;12047;53.450;-2.286;2023-04-19T15:19:17;102451.38;;;19.62;46.52
23733;BME280;12047;53.450;-2.286;2023-04-19T15:29:58;102434.34;;;19.97;46.72
23733;BME280;12047;53.450;-2.286;2023-04-19T15:34:59;102429.38;;;19.49;47.43
23733;BME280;12047;53.450;-2.286;2023-04-19T15:40:00;102426.63;;;19.58;47.95
23733;BME280;12047;53.450;-2.286;2023-04-19T15:45:03;102445.50;;;19.31;46.97
23733;BME280;12047;53.450;-2.286;2023-04-19T15:50:04;102440.28;;;19.12;44.62
23733;BME280;12047;53.450;-2.286;2023-04-19T15:55:08;102457.66;;;19.35;45.63
23733;BME280;12047;53.450;-2.286;2023-04-19T16:00:09;102455.41;;;19.30;46.81
23733;BME280;12047;53.450;-2.286;2023-04-19T16:05:11;102453.06;;;19.27;46.49
23733;BME280;12047;53.450;-2.286;2023-04-19T16:10:12;102451.91;;;19.30;46.38
23733;BME280;12047;53.450;-2.286;2023-04-19T16:15:18;102452.81;;;18.76;47.12
23733;BME280;12047;53.450;-2.286;2023-04-19T16:20:24;102450.88;;;18.68;48.30
23733;BME280;12047;53.450;-2.286;2023-04-19T16:25:24;102452.44;;;18.14;48.36
23733;BME280;12047;53.450;-2.286;2023-04-19T16:30:33;102462.22;;;18.52;49.39
23733;BME280;12047;53.450;-2.286;2023-04-19T16:35:33;102453.00;;;18.18;47.49
23733;BME280;12047;53.450;-2.286;2023-04-19T16:46:14;102473.78;;;17.58;49.08
23733;BME280;12047;53.450;-2.286;2023-04-19T16:51:18;102467.63;;;17.77;49.52
23733;BME280;12047;53.450;-2.286;2023-04-19T16:56:19;102466.03;;;17.84;49.39
23733;BME280;12047;53.450;-2.286;2023-04-19T17:01:26;102466.03;;;17.93;50.49
23733;BME280;12047;53.450;-2.286;2023-04-19T17:06:26;102467.28;;;18.09;49.38
23733;BME280;12047;53.450;-2.286;2023-04-19T17:11:31;102483.13;;;17.54;49.12
23733;BME280;12047;53.450;-2.286;2023-04-19T17:17:08;102489.31;;;17.64;48.74
23733;BME280;12047;53.450;-2.286;2023-04-19T17:22:11;102494.19;;;17.11;51.42
23733;BME280;12047;53.450;-2.286;2023-04-19T17:27:15;102506.09;;;17.47;51.16
23733;BME280;12047;53.450;-2.286;2023-04-19T17:32:16;102499.94;;;17.65;50.99
23733;BME280;12047;53.450;-2.286;2023-04-19T17:37:17;102504.22;;;17.18;52.68
23733;BME280;12047;53.450;-2.286;2023-04-19T17:42:17;102499.75;;;17.48;52.90
23733;BME280;12047;53.450;-2.286;2023-04-19T17:47:18;102494.88;;;17.13;52.08
23733;BME280;12047;53.450;-2.286;2023-04-19T17:52:19;102487.16;;;17.19;52.06
23733;BME280;12047;53.450;-2.286;2023-04-19T17:57:20;102480.41;;;17.34;51.54
23733;BME280;12047;53.450;-2.286;2023-04-19T18:02:21;102505.38;;;16.85;51.48
23733;BME280;12047;53.450;-2.286;2023-04-19T18:07:21;102502.06;;;16.42;51.92
23733;BME280;12047;53.450;-2.286;2023-04-19T18:12:22;102494.38;;;16.79;51.92
23733;BME280;12047;53.450;-2.286;2023-04-19T18:17:22;102486.28;;;16.18;52.75
23733;BME280;12047;53.450;-2.286;2023-04-19T18:22:23;102492.34;;;16.41;53.13
23733;BME280;12047;53.450;-2.286;2023-04-19T18:27:23;102508.78;;;16.15;53.36
23733;BME280;12047;53.450;-2.286;2023-04-19T18:32:23;102506.47;;;16.01;53.68
23733;BME280;12047;53.450;-2.286;2023-04-19T18:37:27;102522.50;;;16.01;53.74
23733;BME280;12047;53.450;-2.286;2023-04-19T18:42:28;102529.59;;;16.12;54.16
23733;BME280;12047;53.450;-2.286;2023-04-19T18:47:28;102528.56;;;16.24;54.56
23733;BME280;12047;53.450;-2.286;2023-04-19T18:52:29;102544.50;;;15.73;54.52
23733;BME280;12047;53.450;-2.286;2023-04-19T18:57:29;102531.78;;;15.86;54.15
23733;BME280;12047;53.450;-2.286;2023-04-19T19:02:30;102537.56;;;16.02;54.70
23733;BME280;12047;53.450;-2.286;2023-04-19T19:07:33;102543.53;;;15.62;55.43
23733;BME280;12047;53.450;-2.286;2023-04-19T19:12:33;102534.94;;;15.91;55.38
23733;BME280;12047;53.450;-2.286;2023-04-19T19:17:34;102539.56;;;15.46;56.98
23733;BME280;12047;53.450;-2.286;2023-04-19T19:22:34;102539.94;;;15.84;57.28
23733;BME280;12047;53.450;-2.286;2023-04-19T19:27:35;102553.66;;;15.48;60.37
23733;BME280;12047;53.450;-2.286;2023-04-19T19:32:35;102557.47;;;15.77;59.58
23733;BME280;12047;53.450;-2.286;2023-04-19T19:37:36;102565.44;;;15.88;60.13
23733;BME280;12047;53.450;-2.286;2023-04-19T19:42:36;102563.97;;;15.41;60.10
23733;BME280;12047;53.450;-2.286;2023-04-19T19:47:38;102564.94;;;15.51;59.70
23733;BME280;12047;53.450;-2.286;2023-04-19T19:52:39;102570.34;;;15.07;57.87
23733;BME280;12047;53.450;-2.286;2023-04-19T19:57:39;102570.59;;;15.04;58.29
23733;BME280;12047;53.450;-2.286;2023-04-19T20:02:40;102586.00;;;14.78;57.88
23733;BME280;12047;53.450;-2.286;2023-04-19T20:07:41;102577.63;;;14.93;57.78
23733;BME280;12047;53.450;-2.286;2023-04-19T20:12:42;102581.25;;;14.81;58.18
23733;BME280;12047;53.450;-2.286;2023-04-19T20:17:43;102591.22;;;15.02;57.28
23733;BME280;12047;53.450;-2.286;2023-04-19T20:22:44;102588.06;;;15.08;56.87
23733;BME280;12047;53.450;-2.286;2023-04-19T20:27:45;102586.94;;;14.88;57.47
23733;BME280;12047;53.450;-2.286;2023-04-19T20:32:45;102584.66;;;14.83;57.80
23733;BME280;12047;53.450;-2.286;2023-04-19T20:37:51;102592.06;;;14.80;58.42
23733;BME280;12047;53.450;-2.286;2023-04-19T20:42:53;102587.19;;;14.27;58.34
23733;BME280;12047;53.450;-2.286;2023-04-19T20:47:54;102582.97;;;14.82;57.98
23733;BME280;12047;53.450;-2.286;2023-04-19T20:52:54;102592.03;;;14.69;58.48
23733;BME280;12047;53.450;-2.286;2023-04-19T20:57:55;102582.91;;;14.60;59.13
23733;BME280;12047;53.450;-2.286;2023-04-19T21:02:56;102578.97;;;14.30;59.28
23733;BME280;12047;53.450;-2.286;2023-04-19T21:07:56;102572.41;;;14.00;58.96
23733;BME280;12047;53.450;-2.286;2023-04-19T21:12:57;102575.63;;;14.62;59.16
23733;BME280;12047;53.450;-2.286;2023-04-19T21:17:57;102577.94;;;14.20;60.28
23733;BME280;12047;53.450;-2.286;2023-04-19T21:22:58;102573.19;;;13.78;60.56
23733;BME280;12047;53.450;-2.286;2023-04-19T21:27:59;102577.44;;;14.15;60.11
23733;BME280;12047;53.450;-2.286;2023-04-19T21:32:59;102576.44;;;14.05;60.41
23733;BME280;12047;53.450;-2.286;2023-04-19T21:38:00;102570.50;;;14.02;60.12
23733;BME280;12047;53.450;-2.286;2023-04-19T21:43:00;102566.88;;;13.79;60.66
23733;BME280;12047;53.450;-2.286;2023-04-19T21:48:01;102565.72;;;13.94;60.65
23733;BME280;12047;53.450;-2.286;2023-04-19T21:53:01;102561.66;;;14.12;60.19
23733;BME280;12047;53.450;-2.286;2023-04-19T21:58:02;102565.00;;;14.38;60.88
23733;BME280;12047;53.450;-2.286;2023-04-19T22:03:02;102559.22;;;13.98;62.11
23733;BME280;12047;53.450;-2.286;2023-04-19T22:08:03;102555.63;;;13.86;63.99
23733;BME280;12047;53.450;-2.286;2023-04-19T22:13:07;102551.22;;;13.98;64.55
23733;BME280;12047;53.450;-2.286;2023-04-19T22:18:07;102548.56;;;13.50;66.07
23733;BME280;12047;53.450;-2.286;2023-04-19T22:23:08;102544.19;;;12.87;67.88
23733;BME280;12047;53.450;-2.286;2023-04-19T22:28:09;102538.53;;;13.30;68.30
23733;BME280;12047;53.450;-2.286;2023-04-19T22:33:09;102532.81;;;13.47;68.06
23733;BME280;12047;53.450;-2.286;2023-04-19T22:38:09;102522.34;;;13.20;68.67
23733;BME280;12047;53.450;-2.286;2023-04-19T22:43:10;102522.88;;;13.13;69.66
23733;BME280;12047;53.450;-2.286;2023-04-19T22:48:11;102513.41;;;13.45;69.18
23733;BME280;12047;53.450;-2.286;2023-04-19T22:53:12;102511.66;;;12.84;70.56
23733;BME280;12047;53.450;-2.286;2023-04-19T22:58:14;102513.50;;;13.20;70.29
23733;BME280;12047;53.450;-2.286;2023-04-19T23:03:14;102503.97;;;12.92;71.05
23733;BME280;12047;53.450;-2.286;2023-04-19T23:08:15;102504.00;;;12.79;73.14
23733;BME280;12047;53.450;-2.286;2023-04-19T23:13:16;102505.94;;;13.14;73.43
23733;BME280;12047;53.450;-2.286;2023-04-19T23:18:17;102503.47;;;13.36;73.07
23733;BME280;12047;53.450;-2.286;2023-04-19T23:23:18;102500.56;;;13.03;74.82
23733;BME280;12047;53.450;-2.286;2023-04-19T23:28:20;102498.16;;;13.23;74.92
23733;BME280;12047;53.450;-2.286;2023-04-19T23:33:21;102506.47;;;13.32;75.07
23733;BME280;12047;53.450;-2.286;2023-04-19T23:38:21;102504.22;;;12.76;77.14
23733;BME280;12047;53.450;-2.286;2023-04-19T23:43:22;102498.41;;;13.20;77.13
23733;BME280;12047;53.450;-2.286;2023-04-19T23:48:22;102501.19;;;13.06;78.22
23733;BME280;12047;53.450;-2.286;2023-04-19T23:53:23;102499.56;;;13.16;78.15
23733;BME280;12047;53.450;-2.286;2023-04-19T23:58:23;102508.81;;;13.71;77.66
